Time;durP1;ratioP1;P1;durP2;ratioP2;P2;SDS_P1;SDS_P2;PMS_P1;PMS_P2;Temp;Humidity;BMP_temperature;BMP_pressure;BME280_temperature;BME280_humidity;BME280_pressure;Samples;Min_cycle;Max_cycle;Signal;HPM_P1;HPM_P2
2021/11/13 00:01:34;;;;;;;;;80.50;68.50;11.10;64.20;;;;;;5054317;28;8871;-70
2021/11/13 00:04:00;;;;;;;;;81.00;65.00;10.80;65.00;;;;;;5054389;28;8867;-68
2021/11/13 00:06:26;;;;;;;;;75.75;62.25;11.00;64.80;;;;;;5034212;28;8776;-66
2021/11/13 00:08:52;;;;;;;;;75.75;61.50;11.20;64.20;;;;;;5042307;28;8905;-69
2021/11/13 00:11:18;;;;;;;;;75.50;61.75;11.20;63.70;;;;;;5040458;28;8885;-68
2021/11/13 00:13:46;;;;;;;;;74.75;58.75;11.30;63.20;;;;;;5044959;28;8857;-68
2021/11/13 00:16:12;;;;;;;;;79.00;63.25;11.30;63.10;;;;;;5046483;28;8952;-67
2021/11/13 00:18:38;;;;;;;;;73.75;60.50;11.20;63.50;;;;;;5043631;28;8800;-68
2021/11/13 00:21:05;;;;;;;;;74.75;60.00;11.20;63.10;;;;;;5041510;28;8781;-67
2021/11/13 00:23:32;;;;;;;;;75.00;61.00;11.40;62.70;;;;;;5043047;28;8809;-67
2021/11/13 00:25:58;;;;;;;;;75.50;61.75;11.40;62.50;;;;;;5043799;28;8776;-66
2021/11/13 00:28:25;;;;;;;;;68.75;56.25;11.40;62.70;;;;;;5036501;28;8879;-66
2021/11/13 00:30:51;;;;;;;;;79.00;61.50;11.20;63.30;;;;;;5036251;28;8773;-66
2021/11/13 00:33:17;;;;;;;;;79.50;64.75;11.20;63.40;;;;;;5043277;28;9468;-67
2021/11/13 00:35:43;;;;;;;;;78.50;63.25;11.00;63.70;;;;;;5044478;28;8812;-67
2021/11/13 00:38:09;;;;;;;;;79.50;64.00;11.20;63.50;;;;;;5034928;28;9522;-67
2021/11/13 00:40:35;;;;;;;;;85.50;66.25;11.10;63.40;;;;;;5034333;28;8762;-67
2021/11/13 00:43:01;;;;;;;;;73.00;60.25;11.20;63.40;;;;;;5034435;28;8798;-67
2021/11/13 00:45:28;;;;;;;;;72.75;60.00;11.20;63.50;;;;;;5034363;28;9428;-67
2021/11/13 00:47:54;;;;;;;;;78.50;63.50;11.30;63.20;;;;;;5037516;28;8785;-67
2021/11/13 00:50:20;;;;;;;;;82.25;69.75;11.00;64.00;;;;;;5041596;28;9490;-66
2021/11/13 00:52:46;;;;;;;;;81.75;66.50;10.90;65.70;;;;;;5044079;28;8788;-67
2021/11/13 00:55:15;;;;;;;;;84.25;72.00;10.80;64.80;;;;;;5044781;28;8815;-67
2021/11/13 00:57:41;;;;;;;;;79.50;63.25;10.70;65.70;;;;;;5045381;28;9391;-67
2021/11/13 01:00:09;;;;;;;;;83.00;68.50;10.70;65.60;;;;;;5042981;28;8861;-69
2021/11/13 01:02:35;;;;;;;;;83.75;72.00;10.50;65.80;;;;;;5033841;28;8762;-68
2021/11/13 01:05:02;;;;;;;;;83.00;68.00;10.70;65.60;;;;;;5034519;28;8754;-67
2021/11/13 01:07:28;;;;;;;;;83.50;72.00;11.00;65.00;;;;;;5040671;28;8751;-68
2021/11/13 01:09:54;;;;;;;;;90.00;75.50;11.10;64.70;;;;;;5046264;28;8831;-69
2021/11/13 01:12:20;;;;;;;;;88.75;73.50;11.00;64.70;;;;;;5040685;28;8840;-67
2021/11/13 01:14:46;;;;;;;;;84.75;71.50;11.10;64.70;;;;;;5040233;28;8885;-68
2021/11/13 01:17:13;;;;;;;;;81.25;69.00;11.00;64.80;;;;;;5034795;28;8790;-67
2021/11/13 01:19:42;;;;;;;;;84.75;72.75;10.90;65.00;;;;;;5037643;28;8794;-67
2021/11/13 01:22:08;;;;;;;;;90.50;83.25;11.00;64.90;;;;;;5037628;28;8847;-68
2021/11/13 01:24:34;;;;;;;;;87.00;79.00;10.60;66.00;;;;;;5037336;28;8900;-66
2021/11/13 01:27:00;;;;;;;;;86.25;75.00;10.20;67.10;;;;;;5037524;28;8778;-66
2021/11/13 01:29:27;;;;;;;;;86.75;73.00;10.40;66.70;;;;;;5037190;28;9444;-67
2021/11/13 01:31:52;;;;;;;;;88.50;79.50;10.70;65.60;;;;;;5038967;28;8778;-68
2021/11/13 01:34:18;;;;;;;;;86.00;73.00;10.50;66.20;;;;;;5043684;28;8768;-68
2021/11/13 01:36:44;;;;;;;;;79.25;64.75;10.70;65.50;;;;;;5045238;28;8922;-68
2021/11/13 01:39:10;;;;;;;;;88.50;78.25;10.20;67.30;;;;;;5040795;28;8881;-68
2021/11/13 01:41:36;;;;;;;;;82.50;69.75;10.40;66.70;;;;;;5037111;28;8881;-69
2021/11/13 01:44:06;;;;;;;;;85.75;74.50;10.70;65.40;;;;;;5037207;28;8774;-67
2021/11/13 01:46:32;;;;;;;;;84.75;71.00;10.80;64.90;;;;;;5037119;28;9455;-68
2021/11/13 01:48:58;;;;;;;;;85.00;75.50;11.00;64.30;;;;;;5037155;28;9420;-68
2021/11/13 01:51:26;;;;;;;;;86.25;74.00;10.80;64.60;;;;;;5036841;28;8782;-69
2021/11/13 01:53:56;;;;;;;;;87.50;77.00;10.70;65.20;;;;;;5036764;28;8770;-67
2021/11/13 01:56:22;;;;;;;;;84.75;69.75;10.80;64.80;;;;;;5036893;28;8945;-67
2021/11/13 01:58:52;;;;;;;;;83.00;67.75;10.50;65.10;;;;;;5036745;28;8761;-68
2021/11/13 02:01:18;;;;;;;;;85.00;71.50;10.00;66.30;;;;;;5036928;28;8778;-68
2021/11/13 02:03:47;;;;;;;;;82.25;69.50;9.30;68.90;;;;;;5037116;28;8869;-68
2021/11/13 02:06:14;;;;;;;;;86.75;75.00;9.00;70.10;;;;;;5036812;28;8790;-69
2021/11/13 02:08:41;;;;;;;;;87.00;77.50;8.90;70.80;;;;;;5019013;28;8809;-67
2021/11/13 02:11:08;;;;;;;;;83.75;72.50;9.20;70.50;;;;;;5036443;28;8770;-69
2021/11/13 02:13:34;;;;;;;;;89.00;79.00;9.30;69.80;;;;;;5036799;28;8802;-66
2021/11/13 02:16:00;;;;;;;;;90.00;78.50;9.70;68.50;;;;;;5036575;28;8802;-67
2021/11/13 02:18:26;;;;;;;;;88.00;74.50;9.60;68.80;;;;;;5034584;28;8794;-68
2021/11/13 02:20:52;;;;;;;;;88.75;75.50;9.90;67.80;;;;;;5036269;28;8801;-68
2021/11/13 02:23:21;;;;;;;;;86.00;76.25;9.70;67.80;;;;;;5036223;28;8755;-67
2021/11/13 02:25:49;;;;;;;;;91.25;78.00;10.20;66.50;;;;;;5036418;28;8789;-66
2021/11/13 02:28:18;;;;;;;;;88.00;79.25;10.40;65.60;;;;;;5035487;28;8774;-66
2021/11/13 02:30:45;;;;;;;;;84.00;72.50;10.50;65.40;;;;;;5018179;28;8754;-66
2021/11/13 02:33:13;;;;;;;;;89.50;80.50;9.90;66.80;;;;;;5036334;28;8898;-68
2021/11/13 02:35:39;;;;;;;;;75.75;60.50;9.50;68.40;;;;;;5044077;28;8810;-69
2021/11/13 02:38:18;;;;;;;;;76.00;62.00;9.20;69.50;;;;;;5046853;28;8791;-69
2021/11/13 02:40:48;;;;;;;;;84.50;72.75;9.40;68.90;;;;;;5035949;28;8774;-68
2021/11/13 02:43:17;;;;;;;;;86.25;70.50;9.20;70.60;;;;;;5036265;28;8893;-70
2021/11/13 02:45:44;;;;;;;;;82.50;68.50;9.30;69.60;;;;;;5036034;28;8774;-68
2021/11/13 02:48:11;;;;;;;;;82.50;69.50;9.30;69.30;;;;;;5035742;28;8765;-68
2021/11/13 02:50:38;;;;;;;;;83.25;72.25;9.50;69.30;;;;;;5035727;28;8754;-68
2021/11/13 02:53:14;;;;;;;;;86.50;75.00;9.60;68.20;;;;;;5018233;28;8794;-66
2021/11/13 02:55:40;;;;;;;;;78.50;64.75;9.70;68.10;;;;;;5035473;28;8857;-68
2021/11/13 02:58:06;;;;;;;;;85.50;73.75;9.60;68.30;;;;;;5035595;28;8762;-67
2021/11/13 03:00:32;;;;;;;;;79.00;63.75;9.90;68.10;;;;;;5035563;28;8835;-68
2021/11/13 03:02:58;;;;;;;;;84.50;70.50;9.90;67.90;;;;;;5035686;28;8770;-67
2021/11/13 03:05:25;;;;;;;;;81.00;68.00;9.90;67.50;;;;;;5035464;28;8777;-68
2021/11/13 03:07:53;;;;;;;;;84.75;71.75;10.10;67.30;;;;;;5035299;28;8774;-68
2021/11/13 03:10:20;;;;;;;;;86.00;76.75;10.30;65.80;;;;;;5035595;28;8786;-69
2021/11/13 03:12:47;;;;;;;;;83.25;71.25;10.00;67.30;;;;;;5035367;28;9392;-68
2021/11/13 03:15:15;;;;;;;;;79.50;63.25;10.20;66.80;;;;;;5035141;28;8762;-69
2021/11/13 03:17:41;;;;;;;;;82.75;70.25;10.10;66.80;;;;;;5035143;28;8777;-67
2021/11/13 03:20:13;;;;;;;;;81.50;69.00;10.20;66.20;;;;;;5035153;28;8770;-68
2021/11/13 03:22:39;;;;;;;;;84.75;74.00;10.40;66.00;;;;;;5035447;28;9441;-69
2021/11/13 03:25:09;;;;;;;;;83.50;71.50;10.20;66.40;;;;;;5035201;28;8769;-68
2021/11/13 03:27:37;;;;;;;;;82.25;70.25;9.90;67.80;;;;;;5035076;28;8761;-68
2021/11/13 03:30:05;;;;;;;;;84.00;71.75;10.20;67.00;;;;;;5035038;28;8766;-69
2021/11/13 03:32:32;;;;;;;;;85.50;75.50;9.90;67.50;;;;;;5034840;28;8794;-69
2021/11/13 03:34:58;;;;;;;;;83.00;70.00;10.00;67.70;;;;;;5017429;28;8778;-68
2021/11/13 03:37:24;;;;;;;;;74.50;60.25;9.90;67.20;;;;;;5035088;28;8754;-67
2021/11/13 03:39:50;;;;;;;;;86.25;73.50;9.60;68.30;;;;;;5034569;28;8857;-68
2021/11/13 03:42:16;;;;;;;;;85.75;71.00;9.40;69.00;;;;;;5034755;28;8810;-68
2021/11/13 03:44:42;;;;;;;;;88.00;75.75;9.30;70.10;;;;;;5035063;28;8762;-66
2021/11/13 03:47:08;;;;;;;;;92.00;84.00;9.40;69.20;;;;;;5034693;28;8779;-68
2021/11/13 03:49:33;;;;;;;;;84.50;71.50;9.00;70.50;;;;;;5034669;28;8785;-67
2021/11/13 03:52:00;;;;;;;;;88.00;75.25;8.90;71.30;;;;;;5034643;28;8790;-67
2021/11/13 03:54:26;;;;;;;;;85.75;72.50;8.70;72.20;;;;;;5034923;28;8766;-67
2021/11/13 03:56:52;;;;;;;;;87.75;75.00;8.90;71.70;;;;;;5034501;28;8916;-68
2021/11/13 03:59:18;;;;;;;;;86.75;70.25;8.70;72.10;;;;;;5034578;28;8790;-67
2021/11/13 04:01:43;;;;;;;;;83.00;69.25;8.70;72.00;;;;;;5034527;28;8790;-67
2021/11/13 04:04:09;;;;;;;;;84.00;69.75;8.90;71.20;;;;;;5034505;28;8787;-67
2021/11/13 04:06:35;;;;;;;;;92.00;81.75;9.00;71.30;;;;;;5034722;28;8778;-68
2021/11/13 04:09:01;;;;;;;;;89.75;78.50;9.10;70.60;;;;;;5034489;28;8763;-67
2021/11/13 04:11:27;;;;;;;;;92.00;77.00;9.10;70.50;;;;;;5034369;28;8774;-67
2021/11/13 04:13:53;;;;;;;;;88.00;77.00;9.10;71.40;;;;;;5034728;28;8804;-66
2021/11/13 04:16:19;;;;;;;;;91.50;82.25;9.20;71.30;;;;;;5034271;28;8798;-67
2021/11/13 04:18:44;;;;;;;;;92.25;81.25;9.50;69.20;;;;;;5034335;28;8771;-66
2021/11/13 04:21:10;;;;;;;;;91.50;84.00;9.50;69.40;;;;;;5034234;28;8759;-66
2021/11/13 04:23:37;;;;;;;;;87.75;76.75;9.70;68.80;;;;;;5034563;28;8759;-67
2021/11/13 04:26:04;;;;;;;;;90.75;80.00;10.10;67.60;;;;;;5034574;28;9601;-66
2021/11/13 04:28:30;;;;;;;;;89.75;77.25;10.00;67.00;;;;;;5034468;28;8852;-67
2021/11/13 04:30:55;;;;;;;;;87.25;77.50;10.10;66.30;;;;;;5034185;28;8851;-69
2021/11/13 04:33:22;;;;;;;;;88.00;77.75;9.80;67.20;;;;;;5034242;28;8770;-67
2021/11/13 04:36:17;;;;;;;;;90.00;79.75;10.10;66.60;;;;;;5034051;28;8805;-65
2021/11/13 04:38:36;;;;;;;;;89.00;80.00;9.50;68.30;;;;;;5033855;28;8809;-68
2021/11/13 04:41:04;;;;;;;;;82.75;65.25;9.40;68.90;;;;;;5034399;28;8774;-69
2021/11/13 04:43:30;;;;;;;;;94.50;81.75;9.20;69.60;;;;;;5034279;28;8826;-66
2021/11/13 04:45:56;;;;;;;;;95.25;86.00;9.20;69.90;;;;;;5034060;28;8771;-68
2021/11/13 04:48:22;;;;;;;;;92.50;84.50;9.20;70.40;;;;;;5035736;28;8801;-67
2021/11/13 04:50:49;;;;;;;;;92.00;83.00;9.50;69.20;;;;;;5039738;28;8794;-68
2021/11/13 04:53:15;;;;;;;;;93.25;88.50;9.60;68.60;;;;;;5044540;28;8789;-66
2021/11/13 04:55:41;;;;;;;;;89.50;78.75;9.60;68.80;;;;;;5037931;28;8952;-67
2021/11/13 04:58:07;;;;;;;;;98.25;90.75;10.00;67.90;;;;;;5038084;28;9432;-67
2021/11/13 05:00:33;;;;;;;;;92.75;86.50;9.50;68.90;;;;;;5037873;28;8865;-67
2021/11/13 05:03:00;;;;;;;;;93.00;89.00;9.70;69.20;;;;;;5037750;28;9444;-67
2021/11/13 05:05:27;;;;;;;;;93.00;87.75;9.60;69.10;;;;;;5037706;28;9410;-66
2021/11/13 05:07:53;;;;;;;;;94.25;88.50;9.30;70.70;;;;;;5037653;28;8774;-68
2021/11/13 05:10:19;;;;;;;;;88.75;81.00;9.50;70.50;;;;;;5037785;28;8863;-65
2021/11/13 05:12:46;;;;;;;;;91.25;85.00;9.70;69.20;;;;;;5037630;28;8837;-67
2021/11/13 05:15:13;;;;;;;;;91.50;83.75;9.50;69.20;;;;;;5037442;28;8785;-66
2021/11/13 05:17:41;;;;;;;;;93.75;88.00;9.50;70.00;;;;;;5037520;28;8758;-68
2021/11/13 05:20:12;;;;;;;;;92.75;86.25;9.10;70.70;;;;;;5037700;28;8877;-68
2021/11/13 05:22:40;;;;;;;;;85.00;71.75;8.90;71.70;;;;;;5037556;28;8774;-66
2021/11/13 05:25:09;;;;;;;;;84.25;66.75;8.60;72.50;;;;;;5037371;28;8793;-67
2021/11/13 05:27:35;;;;;;;;;89.75;80.00;8.50;73.40;;;;;;5037169;28;8766;-67
2021/11/13 05:30:02;;;;;;;;;90.50;82.75;8.40;73.50;;;;;;5037413;28;8766;-68
2021/11/13 05:32:30;;;;;;;;;89.00;79.25;8.60;73.40;;;;;;5037183;28;8794;-66
2021/11/13 05:34:56;;;;;;;;;90.25;81.25;8.90;72.40;;;;;;5037136;28;8801;-67
2021/11/13 05:37:21;;;;;;;;;96.25;91.50;8.80;71.90;;;;;;5037088;28;8810;-67
2021/11/13 05:39:47;;;;;;;;;94.75;86.75;8.90;72.20;;;;;;5037040;28;8871;-67
2021/11/13 05:42:15;;;;;;;;;91.25;82.00;8.90;72.10;;;;;;5037008;28;8818;-67
2021/11/13 05:44:41;;;;;;;;;91.50;83.00;9.10;71.10;;;;;;5037009;28;8876;-68
2021/11/13 05:47:07;;;;;;;;;89.25;80.75;8.80;71.80;;;;;;5037159;28;8793;-67
2021/11/13 05:49:33;;;;;;;;;92.00;82.25;8.60;72.40;;;;;;5037114;28;8774;-66
2021/11/13 05:51:59;;;;;;;;;89.25;81.25;8.60;72.60;;;;;;5036864;28;9223;-65
2021/11/13 05:54:25;;;;;;;;;92.00;84.75;8.60;72.80;;;;;;5036801;28;8771;-68
2021/11/13 05:56:51;;;;;;;;;90.75;80.25;8.70;71.90;;;;;;5036766;28;8976;-68
2021/11/13 05:59:16;;;;;;;;;90.75;81.00;8.90;71.50;;;;;;5036571;28;8778;-69
2021/11/13 06:01:42;;;;;;;;;90.75;79.50;9.10;70.50;;;;;;5036544;28;8782;-67
2021/11/13 06:04:09;;;;;;;;;85.50;74.00;9.20;70.50;;;;;;5036746;28;8774;-69
2021/11/13 06:06:35;;;;;;;;;94.50;89.00;9.10;70.30;;;;;;5036514;28;8785;-67
2021/11/13 06:09:00;;;;;;;;;90.75;79.00;8.80;72.60;;;;;;5036519;28;8774;-69
2021/11/13 06:11:26;;;;;;;;;92.25;84.50;8.80;71.80;;;;;;5036657;28;8801;-67
2021/11/13 06:13:52;;;;;;;;;90.25;83.50;9.00;70.80;;;;;;5036335;28;8813;-66
2021/11/13 06:16:18;;;;;;;;;90.00;86.50;8.90;71.70;;;;;;5036321;28;8807;-67
2021/11/13 06:18:43;;;;;;;;;92.25;87.50;8.70;71.60;;;;;;5036418;28;8777;-66
2021/11/13 06:21:09;;;;;;;;;100.50;95.50;8.60;72.50;;;;;;5036308;28;8926;-68
2021/11/13 06:23:37;;;;;;;;;91.75;81.00;8.60;72.20;;;;;;5036238;28;8774;-67
2021/11/13 06:26:04;;;;;;;;;89.25;76.50;8.60;72.20;;;;;;5036171;28;8774;-68
2021/11/13 06:28:31;;;;;;;;;91.00;81.00;8.80;71.80;;;;;;5036359;28;8782;-68
2021/11/13 06:30:57;;;;;;;;;95.50;88.25;8.60;72.30;;;;;;5036110;28;8762;-67
2021/11/13 06:33:24;;;;;;;;;94.25;84.75;8.40;73.20;;;;;;5036075;28;8893;-67
2021/11/13 06:35:50;;;;;;;;;88.00;76.50;8.30;73.60;;;;;;5036182;28;8856;-67
2021/11/13 06:38:16;;;;;;;;;86.25;74.25;8.30;73.60;;;;;;5035984;28;8762;-66
2021/11/13 06:40:42;;;;;;;;;94.25;87.75;8.20;73.90;;;;;;5036113;28;8798;-67
2021/11/13 06:43:08;;;;;;;;;98.50;92.75;8.40;73.50;;;;;;5035792;28;8821;-68
2021/11/13 06:45:34;;;;;;;;;95.50;88.50;8.50;72.80;;;;;;5035923;28;8770;-69
2021/11/13 06:48:00;;;;;;;;;93.75;88.25;8.30;74.10;;;;;;5035688;28;8810;-68
2021/11/13 06:50:26;;;;;;;;;94.75;85.25;8.50;73.30;;;;;;5035719;28;8774;-67
2021/11/13 06:52:52;;;;;;;;;96.25;87.25;8.70;72.60;;;;;;5035664;28;8877;-68
2021/11/13 06:55:18;;;;;;;;;91.50;80.75;8.50;72.70;;;;;;5035518;28;8754;-67
2021/11/13 06:57:44;;;;;;;;;92.50;82.50;8.60;72.60;;;;;;5035885;28;8746;-67
2021/11/13 07:00:16;;;;;;;;;91.25;79.00;8.70;71.90;;;;;;5035557;28;9620;-69
2021/11/13 07:02:42;;;;;;;;;93.50;84.50;8.60;72.40;;;;;;5035545;28;8801;-68
2021/11/13 07:05:08;;;;;;;;;85.75;64.25;8.80;71.90;;;;;;5041169;28;8803;-69
2021/11/13 07:07:34;;;;;;;;;102.50;82.00;8.40;73.00;;;;;;5054170;28;8865;-67
2021/11/13 07:10:02;;;;;;;;;96.75;92.25;8.20;74.60;;;;;;5042482;28;8798;-67
2021/11/13 07:12:29;;;;;;;;;112.75;104.25;8.10;75.00;;;;;;5053056;28;8823;-69
2021/11/13 07:14:54;;;;;;;;;101.25;93.50;8.10;75.00;;;;;;5041374;28;8920;-69
2021/11/13 07:17:21;;;;;;;;;100.50;95.25;8.10;75.60;;;;;;5035396;28;8912;-68
2021/11/13 07:19:47;;;;;;;;;91.25;80.75;8.30;74.80;;;;;;5035506;28;9408;-68
2021/11/13 07:22:16;;;;;;;;;103.25;100.00;8.10;75.10;;;;;;5035348;28;8835;-68
2021/11/13 07:24:42;;;;;;;;;90.50;81.25;8.10;75.60;;;;;;5034938;28;8778;-68
2021/11/13 07:27:09;;;;;;;;;101.25;95.00;8.40;74.30;;;;;;5035292;28;8797;-67
2021/11/13 07:29:44;;;;;;;;;101.00;93.00;8.50;74.10;;;;;;5035306;28;8758;-68
2021/11/13 07:32:11;;;;;;;;;101.00;96.75;8.40;74.20;;;;;;5042119;28;8967;-68
2021/11/13 07:34:37;;;;;;;;;94.75;87.00;8.20;75.10;;;;;;5041988;28;8811;-67
2021/11/13 07:37:03;;;;;;;;;103.00;93.75;8.30;74.80;;;;;;5043267;28;8806;-69
2021/11/13 07:39:29;;;;;;;;;108.00;99.00;8.20;75.10;;;;;;5034934;28;8774;-68
2021/11/13 07:41:55;;;;;;;;;105.50;94.75;8.00;75.80;;;;;;5034775;28;8802;-69
2021/11/13 07:44:21;;;;;;;;;107.75;105.25;8.00;75.30;;;;;;5034715;28;8779;-70
2021/11/13 07:46:46;;;;;;;;;99.25;94.50;8.00;76.10;;;;;;5034712;28;8754;-68
2021/11/13 07:49:13;;;;;;;;;102.50;97.75;8.10;75.80;;;;;;5034724;28;8836;-69
2021/11/13 07:51:39;;;;;;;;;100.00;97.00;7.90;76.40;;;;;;5034768;28;8767;-66
2021/11/13 07:54:05;;;;;;;;;98.00;93.00;7.90;76.10;;;;;;5034387;28;8782;-71
2021/11/13 07:56:31;;;;;;;;;94.75;91.00;8.10;75.90;;;;;;5034691;28;8898;-58
2021/11/13 07:58:57;;;;;;;;;109.75;97.50;8.10;75.30;;;;;;5034604;28;8771;-57
2021/11/13 08:01:24;;;;;;;;;112.50;103.75;8.20;75.30;;;;;;5034378;28;8786;-62
2021/11/13 08:03:50;;;;;;;;;110.75;105.00;8.30;75.00;;;;;;5034478;28;8762;-59
2021/11/13 08:06:16;;;;;;;;;110.50;103.50;8.60;73.60;;;;;;5034664;28;9455;-61
2021/11/13 08:08:42;;;;;;;;;107.25;99.00;8.30;74.30;;;;;;5034383;28;8778;-62
2021/11/13 08:11:08;;;;;;;;;99.75;92.75;8.50;74.00;;;;;;5034082;28;8782;-62
2021/11/13 08:13:36;;;;;;;;;98.50;94.25;8.30;74.80;;;;;;5034515;28;8802;-63
2021/11/13 08:16:02;;;;;;;;;93.50;86.00;8.20;75.20;;;;;;5034115;28;8936;-63
2021/11/13 08:18:28;;;;;;;;;94.00;89.75;8.00;75.80;;;;;;5034546;28;8758;-62
2021/11/13 08:20:54;;;;;;;;;93.75;84.50;7.90;76.50;;;;;;5034109;28;9446;-58
2021/11/13 08:23:20;;;;;;;;;97.50;90.25;7.80;76.50;;;;;;5034267;28;8822;-60
2021/11/13 08:25:48;;;;;;;;;100.00;95.00;7.90;77.00;;;;;;5034478;28;8863;-60
2021/11/13 08:28:14;;;;;;;;;107.25;101.00;7.90;77.00;;;;;;5037191;28;8766;-58
2021/11/13 08:30:40;;;;;;;;;100.75;97.75;8.10;75.70;;;;;;5040174;28;8790;-59
2021/11/13 08:33:08;;;;;;;;;105.75;100.75;8.00;75.70;;;;;;5049173;28;8811;-58
2021/11/13 08:35:39;;;;;;;;;89.75;79.75;8.10;76.10;;;;;;5047200;28;8808;-58
2021/11/13 08:38:05;;;;;;;;;94.75;85.75;8.20;76.50;;;;;;5051342;28;8810;-59
2021/11/13 08:40:32;;;;;;;;;93.00;87.75;8.80;74.60;;;;;;5043457;28;8770;-60
2021/11/13 08:42:58;;;;;;;;;91.50;83.75;8.60;74.60;;;;;;5047909;28;8789;-54
2021/11/13 08:45:24;;;;;;;;;96.00;87.50;8.20;75.10;;;;;;5047195;28;8762;-59
2021/11/13 08:47:50;;;;;;;;;92.25;82.25;8.30;75.50;;;;;;5037916;28;8863;-62
2021/11/13 08:50:23;;;;;;;;;95.50;87.50;8.40;75.30;;;;;;5057596;28;8865;-71
2021/11/13 08:52:51;;;;;;;;;113.50;107.50;8.50;74.80;;;;;;5053844;28;8893;-66
2021/11/13 08:55:19;;;;;;;;;108.00;102.75;8.70;74.10;;;;;;5048461;28;8817;-64
2021/11/13 08:57:47;;;;;;;;;103.75;102.50;8.90;73.80;;;;;;5039419;28;8776;-63
2021/11/13 09:00:18;;;;;;;;;108.25;102.00;9.20;72.40;;;;;;5041967;28;8863;-63
2021/11/13 09:02:44;;;;;;;;;102.75;97.75;9.10;72.20;;;;;;5043060;28;8800;-65
2021/11/13 09:05:10;;;;;;;;;115.50;109.50;9.40;70.80;;;;;;5048658;28;8788;-62
2021/11/13 09:07:36;;;;;;;;;91.25;85.25;9.20;71.20;;;;;;5047155;28;8885;-63
2021/11/13 09:10:04;;;;;;;;;83.50;68.75;8.60;73.00;;;;;;5045344;28;8878;-63
2021/11/13 09:12:31;;;;;;;;;106.00;102.00;8.30;74.30;;;;;;5048315;28;8839;-64
2021/11/13 09:15:07;;;;;;;;;97.00;91.50;8.40;74.90;;;;;;5057486;28;8780;-63
2021/11/13 09:17:32;;;;;;;;;90.00;79.25;8.30;74.90;;;;;;5057023;28;8804;-67
2021/11/13 09:19:58;;;;;;;;;95.75;90.50;8.30;74.60;;;;;;5057560;28;8788;-67
2021/11/13 09:22:25;;;;;;;;;82.75;72.75;8.80;72.90;;;;;;5057303;28;9398;-68
2021/11/13 09:24:51;;;;;;;;;94.00;84.00;8.60;73.60;;;;;;5057428;28;9414;-65
2021/11/13 09:27:18;;;;;;;;;99.00;91.25;8.90;72.50;;;;;;5057167;28;8788;-64
2021/11/13 09:29:43;;;;;;;;;103.00;98.50;9.10;72.10;;;;;;5039449;28;8886;-67
2021/11/13 09:32:09;;;;;;;;;88.25;80.50;9.10;71.90;;;;;;5056955;28;8923;-66
2021/11/13 09:34:35;;;;;;;;;82.25;73.00;8.80;72.60;;;;;;5057129;28;8768;-68
2021/11/13 09:37:01;;;;;;;;;91.00;85.50;8.50;74.00;;;;;;5056886;28;8776;-62
2021/11/13 09:39:27;;;;;;;;;89.25;80.25;8.40;75.50;;;;;;5053632;28;8802;-66
2021/11/13 09:41:53;;;;;;;;;87.00;80.75;8.60;74.50;;;;;;5048915;28;8796;-75
2021/11/13 09:44:19;;;;;;;;;92.25;85.75;8.60;73.80;;;;;;5056931;28;8772;-70
2021/11/13 09:46:48;;;;;;;;;80.50;66.25;8.60;74.00;;;;;;5056811;28;8760;-69
2021/11/13 09:49:15;;;;;;;;;88.50;77.75;8.60;74.30;;;;;;5056682;28;8883;-67
2021/11/13 09:51:42;;;;;;;;;88.25;79.00;8.80;73.70;;;;;;5045640;28;8771;-67
2021/11/13 09:54:08;;;;;;;;;91.75;84.75;8.60;74.50;;;;;;5049241;28;8837;-67
2021/11/13 09:56:36;;;;;;;;;93.25;88.00;8.90;73.70;;;;;;5056549;28;8818;-68
2021/11/13 09:59:03;;;;;;;;;94.00;87.75;8.80;73.60;;;;;;5048121;28;8812;-69
2021/11/13 10:01:31;;;;;;;;;86.75;78.50;8.80;74.20;;;;;;5045733;28;8830;-69
2021/11/13 10:03:58;;;;;;;;;90.00;82.00;8.80;73.90;;;;;;5056808;28;8756;-66
2021/11/13 10:06:24;;;;;;;;;98.00;93.50;8.80;74.00;;;;;;5045674;28;8783;-67
2021/11/13 10:08:50;;;;;;;;;97.00;95.25;8.80;74.00;;;;;;5041538;28;8945;-67
2021/11/13 10:11:19;;;;;;;;;87.75;79.50;8.90;73.90;;;;;;5049804;28;8788;-67
2021/11/13 10:13:52;;;;;;;;;89.00;83.50;8.90;74.50;;;;;;5023025;28;9472;-67
2021/11/13 10:16:32;;;;;;;;;100.00;93.75;9.00;74.40;;;;;;5036313;28;8802;-67
2021/11/13 10:19:09;;;;;;;;;84.75;78.50;9.30;72.80;;;;;;5046424;28;8854;-67
2021/11/13 10:21:37;;;;;;;;;90.50;80.25;9.00;73.50;;;;;;5045651;28;8776;-67
2021/11/13 10:24:10;;;;;;;;;91.50;86.50;9.00;74.20;;;;;;5041593;28;8790;-66
2021/11/13 10:26:45;;;;;;;;;91.25;86.25;8.90;74.10;;;;;;5048204;28;8797;-68
2021/11/13 10:29:41;;;;;;;;;84.50;76.25;8.80;74.60;;;;;;5046756;28;8896;-66
2021/11/13 10:32:16;;;;;;;;;87.50;76.00;8.90;74.90;;;;;;4964162;28;8959;-68
2021/11/13 10:34:46;;;;;;;;;83.25;72.50;9.10;74.50;;;;;;4964447;28;8801;-67
2021/11/13 10:37:17;;;;;;;;;81.25;70.25;9.30;73.20;;;;;;4974946;28;8831;-66
2021/11/13 10:39:44;;;;;;;;;86.00;79.00;9.00;74.00;;;;;;4967714;28;8795;-66
2021/11/13 10:42:22;;;;;;;;;88.25;82.75;9.10;74.00;;;;;;4966748;28;8836;-66
2021/11/13 10:44:54;;;;;;;;;93.25;86.25;9.30;73.60;;;;;;4962974;28;9567;-66
2021/11/13 10:47:20;;;;;;;;;84.00;77.50;9.30;73.70;;;;;;4968837;28;8808;-67
2021/11/13 10:49:48;;;;;;;;;81.50;73.75;9.30;73.70;;;;;;4956928;28;8799;-67
2021/11/13 10:52:17;;;;;;;;;83.00;75.50;9.80;72.40;;;;;;4961722;28;8777;-66
2021/11/13 10:54:48;;;;;;;;;88.00;80.00;10.60;69.20;;;;;;4960715;28;8779;-66
2021/11/13 10:57:24;;;;;;;;;106.25;103.50;11.10;67.60;;;;;;4964125;28;8832;-66
2021/11/13 10:59:50;;;;;;;;;90.75;82.00;11.90;66.40;;;;;;4957281;28;8845;-68
2021/11/13 11:02:18;;;;;;;;;87.75;83.75;12.00;65.10;;;;;;4966751;28;8803;-69
2021/11/13 11:04:46;;;;;;;;;88.25;86.00;11.60;65.60;;;;;;4963066;28;9443;-68
2021/11/13 11:07:21;;;;;;;;;87.00;81.25;11.20;67.20;;;;;;4963789;28;8789;-67
2021/11/13 11:10:00;;;;;;;;;83.50;81.00;10.60;69.10;;;;;;5055555;28;8776;-66
2021/11/13 11:12:31;;;;;;;;;93.00;88.25;11.70;67.50;;;;;;5046735;28;9467;-66
2021/11/13 11:14:57;;;;;;;;;93.25;90.25;12.40;64.60;;;;;;5035390;28;8774;-66
2021/11/13 11:17:30;;;;;;;;;91.00;83.25;12.60;63.50;;;;;;5037065;28;8891;-68
2021/11/13 11:20:04;;;;;;;;;82.75;81.50;13.10;61.70;;;;;;5044320;28;9460;-67
2021/11/13 11:22:31;;;;;;;;;88.50;86.25;13.20;61.80;;;;;;5035192;28;8900;-68
2021/11/13 11:25:00;;;;;;;;;91.50;88.25;14.10;61.70;;;;;;5045965;28;8813;-69
2021/11/13 11:27:28;;;;;;;;;90.25;88.75;15.50;55.20;;;;;;5054991;28;8775;-67
2021/11/13 11:29:57;;;;;;;;;79.50;76.00;16.40;53.80;;;;;;5048741;28;8819;-69
2021/11/13 11:32:28;;;;;;;;;79.75;74.50;17.90;49.60;;;;;;5038671;28;8904;-70
2021/11/13 11:34:56;;;;;;;;;81.25;76.75;19.30;46.50;;;;;;5037780;28;8784;-68
2021/11/13 11:37:37;;;;;;;;;79.00;76.25;20.20;43.50;;;;;;5046082;28;8874;-68
2021/11/13 11:40:14;;;;;;;;;79.00;75.75;21.60;41.20;;;;;;5051639;28;8812;-70
2021/11/13 11:42:42;;;;;;;;;75.50;70.50;23.30;37.70;;;;;;5054771;28;8885;-67
2021/11/13 11:45:11;;;;;;;;;76.50;71.50;24.30;35.10;;;;;;5054546;28;8764;-67
2021/11/13 11:47:39;;;;;;;;;74.75;67.25;24.90;33.90;;;;;;5054572;28;8857;-67
2021/11/13 11:50:08;;;;;;;;;78.00;73.75;25.60;32.60;;;;;;5054612;28;8902;-69
2021/11/13 11:52:35;;;;;;;;;74.00;69.25;26.40;31.00;;;;;;5050406;28;8788;-69
2021/11/13 11:55:04;;;;;;;;;85.25;85.25;26.40;30.70;;;;;;5043275;28;8790;-69
2021/11/13 11:57:37;;;;;;;;;76.00;71.25;27.30;30.00;;;;;;5034814;28;8822;-69
2021/11/13 12:00:17;;;;;;;;;73.50;69.75;27.90;29.10;;;;;;5043469;28;8898;-68
2021/11/13 12:02:51;;;;;;;;;76.25;70.75;27.90;28.80;;;;;;5043283;28;8816;-70
2021/11/13 12:05:37;;;;;;;;;78.00;75.00;28.30;28.20;;;;;;5041698;28;8774;-66
2021/11/13 12:08:20;;;;;;;;;76.00;72.25;28.40;27.70;;;;;;5037799;28;8802;-66
2021/11/13 12:10:46;;;;;;;;;76.75;73.00;28.60;27.20;;;;;;5034484;28;8758;-67
2021/11/13 12:13:23;;;;;;;;;87.75;85.75;27.70;28.10;;;;;;5047685;28;8808;-67
2021/11/13 12:15:50;;;;;;;;;88.75;87.75;27.40;27.90;;;;;;5045507;28;8973;-69
2021/11/13 12:18:22;;;;;;;;;95.50;94.75;27.20;28.30;;;;;;5035854;28;8772;-67
2021/11/13 12:20:52;;;;;;;;;90.25;89.00;26.10;29.30;;;;;;5043258;28;8780;-66
2021/11/13 12:23:28;;;;;;;;;81.25;79.25;24.90;30.30;;;;;;5054384;28;8759;-67
2021/11/13 12:25:57;;;;;;;;;93.75;92.25;26.30;29.50;;;;;;5054203;28;8769;-67
2021/11/13 12:28:24;;;;;;;;;106.75;105.75;26.10;28.70;;;;;;5054305;28;8821;-66
2021/11/13 12:30:58;;;;;;;;;101.50;100.50;25.30;30.30;;;;;;5053943;28;8792;-66
2021/11/13 12:33:27;;;;;;;;;107.00;106.25;24.90;30.40;;;;;;5054233;28;9505;-67
2021/11/13 12:36:11;;;;;;;;;97.25;96.50;25.80;29.80;;;;;;5053895;28;8819;-65
2021/11/13 12:38:42;;;;;;;;;96.50;96.00;26.10;29.30;;;;;;5042445;28;8798;-64
2021/11/13 12:41:08;;;;;;;;;104.00;102.75;26.10;29.80;;;;;;5043567;28;8774;-65
2021/11/13 12:46:39;;;;;;;;;101.25;99.50;26.30;29.10;;;;;;5044263;28;8859;-65